Uigi, Mongolia
Current Conditions -  °F | °C
As of 9:30 PM on Monday 22 Dec 2014 (Local Time) from UNAA Reporting Station
Haze Haze  
Wind Chill:   Ceiling: 8100
Heat Index:   Visibility: 1.8mi
Dew Point: -6°   Wind: 0mph
Humidity: 78%   Direction: NA
Pressure: 30.33"   Gusts: NA
Location:  48.93°N, 89.93°E
Report Text: UNAA 221330Z 00000MPS 3000 BR BKN081 M18/M21 Q1027 NOSIG RMKQFE747 52090060
Loading
Personal Weather Stations






























Interactive Weather Map New forecast layout! Learn more

10-Day Weather Forecast

Advertisements
Track Severe Weather on mobile